Terminal Aerodrome Forecast
Issued by NWS

Home | Current Version | Previous Version | Text Only | Print | Product List | Glossary On
Versions: 1 2 3 4 5 6 7 8 9 10 11 12 13 14 15 16 17 18 19 20
000
FTUS43 KFGF 281720
TAFBJI
TAF
KBJI 281720Z 2818/2918 02007KT P6SM VCSH OVC008
     FM290300 VRB03KT P6SM VCSH OVC008
     FM291000 29007KT P6SM VCSH BKN008
     FM291600 29008KT P6SM VCSH BKN020=

USA.gov is the U.S. government's official web portal to all federal, state and local government web resources and services.